SLC weather

Salt Lake City International Airport
Salt Lake City, Utah, United States

Public forecast

Using degrees Fahrenheit for public forecast. Weather courtesy of forecast.io.

METAR (pilot weather report)

Retrieved 2018/04/22 08:54 UTC (1 hour ago):

KSLC 220854Z 16007KT 10SM CLR 10/00 A3013 RMK AO2 SLP175 T01000000 58001

TAF (pilot weather forecast)

Retrieved 2018/04/22 06:36 UTC (3 hours ago):

TAF KSLC 220533Z 2206/2312 14008KT P6SM SKC FM222000 33008KT P6SM FEW080 FM230300 14009KT P6SM SCT080 BKN110 FM230900 32008KT P6SM VCSH SCT050 BKN080